createdAt,value
2022-08-26T00:02:20.501Z,4.00
2022-08-26T00:04:50.117Z,4.80
2022-08-26T00:07:20.670Z,5.20
2022-08-26T00:09:50.007Z,5.57
2022-08-26T00:12:19.235Z,5.47
2022-08-26T00:15:01.033Z,4.45
2022-08-26T00:17:30.294Z,4.22
2022-08-26T00:20:01.796Z,4.88
2022-08-26T00:22:32.891Z,3.90
2022-08-26T00:25:02.137Z,4.13
2022-08-26T00:27:34.262Z,5.30
2022-08-26T00:30:06.929Z,5.60
2022-08-26T00:32:37.435Z,7.77
2022-08-26T00:35:08.013Z,6.50
2022-08-26T00:37:38.418Z,5.00
2022-08-26T00:40:11.476Z,5.60
2022-08-26T00:42:40.454Z,5.70
2022-08-26T00:45:17.249Z,6.72
2022-08-26T00:47:50.070Z,7.15
2022-08-26T00:50:24.514Z,5.77
2022-08-26T00:52:57.446Z,5.25
2022-08-26T00:55:37.920Z,4.47
2022-08-26T00:58:08.689Z,5.60
2022-08-26T01:00:38.349Z,5.38
2022-08-26T01:03:12.619Z,6.88
2022-08-26T01:05:42.330Z,6.78
2022-08-26T01:08:13.750Z,6.22
2022-08-26T01:10:42.765Z,6.07
2022-08-26T01:13:15.572Z,5.53
2022-08-26T01:15:47.792Z,4.18
2022-08-26T01:18:20.449Z,4.63
2022-08-26T01:21:00.029Z,4.15
2022-08-26T01:23:34.016Z,5.67
2022-08-26T01:26:08.953Z,5.70
2022-08-26T01:28:51.753Z,6.63
2022-08-26T01:31:25.612Z,6.90
2022-08-26T01:34:03.586Z,7.05
2022-08-26T01:36:33.609Z,6.40
2022-08-26T01:39:05.857Z,5.10
2022-08-26T01:41:38.204Z,4.40
2022-08-26T01:44:10.954Z,4.80
2022-08-26T01:46:40.445Z,5.65
2022-08-26T01:49:10.343Z,4.07
2022-08-26T01:51:40.266Z,5.47
2022-08-26T01:54:12.075Z,5.15
2022-08-26T01:56:42.117Z,6.77
2022-08-26T01:59:16.392Z,5.45
2022-08-26T02:01:47.062Z,6.00
2022-08-26T02:04:23.374Z,4.82
2022-08-26T02:06:54.185Z,5.15
2022-08-26T02:09:25.924Z,8.25
2022-08-26T02:11:57.083Z,4.93
2022-08-26T02:14:30.425Z,4.10
2022-08-26T02:16:59.973Z,4.30
2022-08-26T02:19:32.932Z,5.13
2022-08-26T02:22:05.343Z,6.10
2022-08-26T02:24:52.577Z,5.22
2022-08-26T02:27:24.906Z,5.15
2022-08-26T02:30:00.757Z,7.23
2022-08-26T02:32:30.710Z,6.55
2022-08-26T02:35:03.209Z,8.20
2022-08-26T02:37:33.981Z,5.78
2022-08-26T02:40:07.351Z,6.28
2022-08-26T02:42:37.934Z,7.07
2022-08-26T02:45:08.064Z,6.13
2022-08-26T02:47:37.875Z,6.38
2022-08-26T02:50:08.240Z,4.53
2022-08-26T02:52:37.556Z,4.82
2022-08-26T02:55:09.590Z,4.45
2022-08-26T02:57:38.122Z,6.10
2022-08-26T03:00:11.422Z,6.85
2022-08-26T03:02:43.169Z,6.07
2022-08-26T03:05:12.826Z,6.28
2022-08-26T03:07:42.378Z,6.15
2022-08-26T03:10:15.057Z,6.50
2022-08-26T03:12:48.104Z,6.00
2022-08-26T03:15:18.522Z,8.37
2022-08-26T03:17:50.251Z,8.35
2022-08-26T03:20:20.438Z,7.35
2022-08-26T03:22:51.687Z,6.80
2022-08-26T03:25:23.066Z,7.75
2022-08-26T03:27:53.486Z,7.45
2022-08-26T03:30:45.440Z,7.97
2022-08-26T03:33:15.734Z,10.75
2022-08-26T03:35:47.640Z,8.10
2022-08-26T03:38:21.091Z,8.80
2022-08-26T03:40:52.983Z,8.27
2022-08-26T03:43:26.724Z,7.65
2022-08-26T03:45:57.565Z,7.67
2022-08-26T03:48:25.411Z,8.25
2022-08-26T03:50:53.288Z,9.18
2022-08-26T03:53:21.339Z,8.18
2022-08-26T03:55:51.763Z,7.90
2022-08-26T03:58:20.486Z,9.35
2022-08-26T04:00:49.017Z,10.43
2022-08-26T04:03:38.446Z,10.90
2022-08-26T04:06:07.037Z,10.57
2022-08-26T04:08:34.903Z,10.18
2022-08-26T04:11:04.300Z,9.40
2022-08-26T04:13:32.939Z,10.45
2022-08-26T04:16:00.861Z,8.70
2022-08-26T04:18:37.017Z,6.10
2022-08-26T04:21:08.076Z,9.23
2022-08-26T04:23:47.305Z,8.70
2022-08-26T04:26:17.477Z,8.90
2022-08-26T04:28:45.445Z,9.40
2022-08-26T04:31:14.645Z,10.20
2022-08-26T04:33:43.772Z,10.10
2022-08-26T04:36:11.955Z,11.00
2022-08-26T04:38:40.148Z,10.65
2022-08-26T04:41:15.546Z,9.10
2022-08-26T04:43:46.917Z,12.75
2022-08-26T04:46:17.344Z,9.02
2022-08-26T04:48:45.801Z,7.90
2022-08-26T04:51:13.716Z,8.27
2022-08-26T04:53:41.685Z,10.52
2022-08-26T04:56:09.882Z,10.43
2022-08-26T04:58:38.244Z,11.02
2022-08-26T05:01:08.346Z,6.75
2022-08-26T05:03:37.366Z,7.18
2022-08-26T05:06:09.029Z,5.85
2022-08-26T05:08:39.773Z,9.48
2022-08-26T05:11:09.798Z,8.50
2022-08-26T05:13:39.206Z,7.23
2022-08-26T05:16:11.667Z,6.88
2022-08-26T05:18:44.668Z,5.53
2022-08-26T05:21:19.959Z,9.07
2022-08-26T05:23:49.039Z,8.63
2022-08-26T05:26:17.374Z,7.93
2022-08-26T05:28:51.126Z,9.75
2022-08-26T05:31:31.207Z,5.88
2022-08-26T05:33:59.913Z,6.47
2022-08-26T05:36:36.180Z,7.10
2022-08-26T05:39:10.416Z,9.32
2022-08-26T05:41:40.974Z,7.87
2022-08-26T05:44:14.091Z,7.20
2022-08-26T05:46:44.664Z,7.70
2022-08-26T05:49:13.837Z,5.30
2022-08-26T05:51:47.582Z,8.87
2022-08-26T05:54:22.003Z,7.20
2022-08-26T05:56:50.859Z,5.77
2022-08-26T05:59:24.514Z,7.53
2022-08-26T06:01:55.577Z,7.55
2022-08-26T06:04:27.569Z,8.85
2022-08-26T06:06:56.447Z,7.93
2022-08-26T06:09:24.517Z,8.07
2022-08-26T06:11:52.756Z,6.75
2022-08-26T06:14:21.592Z,7.40
2022-08-26T06:16:49.769Z,5.55
2022-08-26T06:19:20.028Z,8.10
2022-08-26T06:21:54.059Z,7.10
2022-08-26T06:24:40.127Z,7.47
2022-08-26T06:27:11.305Z,6.07
2022-08-26T06:29:39.367Z,6.38
2022-08-26T06:32:07.433Z,5.90
2022-08-26T06:34:38.530Z,9.93
2022-08-26T06:37:08.872Z,8.80
2022-08-26T06:39:40.195Z,8.77
2022-08-26T06:42:09.359Z,8.02
2022-08-26T06:44:39.088Z,8.27
2022-08-26T06:47:09.172Z,7.78
2022-08-26T06:49:38.460Z,7.53
2022-08-26T06:52:07.827Z,8.60
2022-08-26T06:54:37.036Z,9.75
2022-08-26T06:57:08.973Z,8.38
2022-08-26T06:59:36.931Z,7.17
2022-08-26T07:02:06.113Z,7.60
2022-08-26T07:04:36.228Z,8.57
2022-08-26T07:07:05.482Z,7.05
2022-08-26T07:09:35.289Z,8.13
2022-08-26T07:12:06.819Z,6.70
2022-08-26T07:14:35.875Z,7.55
2022-08-26T07:17:03.755Z,6.40
2022-08-26T07:19:31.943Z,7.93
2022-08-26T07:22:01.875Z,7.45
2022-08-26T07:24:32.180Z,8.50
2022-08-26T07:27:02.808Z,6.93
2022-08-26T07:29:31.257Z,7.73
2022-08-26T07:31:59.670Z,7.70
2022-08-26T07:34:28.182Z,10.30
2022-08-26T07:36:57.071Z,12.60
2022-08-26T07:39:28.675Z,9.13
2022-08-26T07:42:01.677Z,7.90
2022-08-26T07:44:36.308Z,8.43
2022-08-26T07:47:10.558Z,8.00
2022-08-26T07:49:52.967Z,6.82
2022-08-26T07:52:26.159Z,10.70
2022-08-26T07:54:54.850Z,8.43
2022-08-26T07:57:24.423Z,7.43
2022-08-26T07:59:55.118Z,7.90
2022-08-26T08:02:23.994Z,8.77
2022-08-26T08:04:52.738Z,10.43
2022-08-26T08:07:21.375Z,8.75
2022-08-26T08:10:11.469Z,7.50
2022-08-26T08:12:42.397Z,8.10
2022-08-26T08:15:13.277Z,8.55
2022-08-26T08:17:47.140Z,9.07
2022-08-26T08:20:23.078Z,8.30
2022-08-26T08:22:54.141Z,5.57
2022-08-26T08:25:23.202Z,8.83
2022-08-26T08:27:52.613Z,8.95
2022-08-26T08:30:23.176Z,7.65
2022-08-26T08:32:52.174Z,9.32
2022-08-26T08:35:23.601Z,9.80
2022-08-26T08:37:54.419Z,7.72
2022-08-26T08:40:27.655Z,9.50
2022-08-26T08:43:03.793Z,6.47
2022-08-26T08:45:37.875Z,7.90
2022-08-26T08:48:21.341Z,6.63
2022-08-26T08:51:04.275Z,8.73
2022-08-26T08:53:36.410Z,6.40
2022-08-26T08:56:13.163Z,9.15
2022-08-26T08:58:53.565Z,7.35
2022-08-26T09:01:31.446Z,6.25
2022-08-26T09:04:21.328Z,8.02
2022-08-26T09:06:53.868Z,6.63
2022-08-26T09:09:25.034Z,7.20
2022-08-26T09:11:54.320Z,5.45
2022-08-26T09:14:24.054Z,4.97
2022-08-26T09:17:04.961Z,6.88
2022-08-26T09:19:42.463Z,7.80
2022-08-26T09:22:26.873Z,5.10
2022-08-26T09:24:55.210Z,4.17
2022-08-26T09:27:39.044Z,4.60
2022-08-26T09:30:11.543Z,5.00
2022-08-26T09:32:40.195Z,4.78
2022-08-26T09:35:24.552Z,6.15
2022-08-26T09:37:53.007Z,8.93
2022-08-26T09:40:27.572Z,6.53
2022-08-26T09:43:09.801Z,6.28
2022-08-26T09:45:49.352Z,4.82
2022-08-26T09:48:28.319Z,5.88
2022-08-26T09:51:00.574Z,5.18
2022-08-26T09:53:31.557Z,9.68
2022-08-26T09:56:16.907Z,8.90
2022-08-26T09:58:48.631Z,4.95
2022-08-26T10:01:30.076Z,6.60
2022-08-26T10:04:07.639Z,8.25
2022-08-26T10:06:39.897Z,9.80
2022-08-26T10:09:37.269Z,8.13
2022-08-26T10:12:11.482Z,12.88
2022-08-26T10:17:24.570Z,11.68
2022-08-26T10:19:57.975Z,10.95
2022-08-26T10:22:31.411Z,10.50
2022-08-26T10:25:04.747Z,10.85
2022-08-26T10:27:41.465Z,10.98
2022-08-26T10:30:21.811Z,10.75
2022-08-26T10:32:56.767Z,10.30
2022-08-26T10:35:26.985Z,10.73
2022-08-26T10:37:57.804Z,10.88
2022-08-26T10:40:28.460Z,9.13
2022-08-26T10:43:07.223Z,15.30
2022-08-26T10:45:42.968Z,11.27
2022-08-26T10:48:18.365Z,9.40
2022-08-26T10:50:49.183Z,8.83
2022-08-26T10:53:24.911Z,11.53
2022-08-26T10:56:00.526Z,9.55
2022-08-26T10:58:39.139Z,12.85
2022-08-26T11:01:33.093Z,12.27
2022-08-26T11:04:12.455Z,11.83
2022-08-26T11:06:41.941Z,10.70
2022-08-26T11:09:13.203Z,9.85
2022-08-26T11:11:51.865Z,7.43
2022-08-26T11:14:53.629Z,9.70
2022-08-26T11:17:57.376Z,8.53
2022-08-26T11:20:41.531Z,7.88
2022-08-26T11:23:50.332Z,12.52
2022-08-26T11:26:35.831Z,8.52
2022-08-26T11:29:13.498Z,12.07
2022-08-26T11:31:58.552Z,11.10
2022-08-26T11:34:55.163Z,10.15
2022-08-26T11:37:32.965Z,12.70
2022-08-26T11:40:04.558Z,9.10
2022-08-26T11:42:40.920Z,10.88
2022-08-26T11:45:20.065Z,11.10
2022-08-26T11:47:49.366Z,10.30
2022-08-26T11:50:20.667Z,10.68
2022-08-26T11:52:54.410Z,10.40
2022-08-26T11:55:24.074Z,13.10
2022-08-26T11:57:55.495Z,13.60
2022-08-26T12:00:25.896Z,13.60
2022-08-26T12:02:57.054Z,10.93
2022-08-26T12:05:31.419Z,7.70
2022-08-26T12:08:08.019Z,12.20
2022-08-26T12:10:37.739Z,13.90
2022-08-26T12:13:10.557Z,11.60
2022-08-26T12:15:38.480Z,13.03
2022-08-26T12:18:28.694Z,10.32
2022-08-26T12:21:03.172Z,12.18
2022-08-26T12:23:45.987Z,14.30
2022-08-26T12:26:23.934Z,10.68
2022-08-26T12:28:57.520Z,13.82
2022-08-26T12:31:31.456Z,11.90
2022-08-26T12:34:02.435Z,14.40
2022-08-26T12:36:33.283Z,12.67
2022-08-26T12:39:11.147Z,13.93
2022-08-26T12:41:48.552Z,17.08
2022-08-26T12:44:54.324Z,10.03
2022-08-26T12:47:41.888Z,12.93
2022-08-26T12:50:19.066Z,16.23
2022-08-26T12:52:56.504Z,12.37
2022-08-26T12:55:36.371Z,13.13
2022-08-26T12:58:15.078Z,10.50
2022-08-26T13:00:45.220Z,15.05
2022-08-26T13:03:38.264Z,12.20
2022-08-26T13:06:18.451Z,11.48
2022-08-26T13:08:47.533Z,11.75
2022-08-26T13:11:20.292Z,8.35
2022-08-26T13:13:51.621Z,8.70
2022-08-26T13:16:20.528Z,9.50
2022-08-26T13:18:49.895Z,12.70
2022-08-26T13:21:20.530Z,10.98
2022-08-26T13:23:51.112Z,9.13
2022-08-26T13:26:21.475Z,7.75
2022-08-26T13:28:59.158Z,8.60
2022-08-26T13:31:32.411Z,9.10
2022-08-26T13:34:07.935Z,9.53
2022-08-26T13:36:35.966Z,10.65
2022-08-26T13:39:08.490Z,11.02
2022-08-26T13:41:38.230Z,10.80
2022-08-26T13:44:08.265Z,9.77
2022-08-26T13:46:39.471Z,10.05
2022-08-26T13:49:08.207Z,10.57
2022-08-26T13:51:41.712Z,11.98
2022-08-26T13:54:10.224Z,7.40
2022-08-26T13:56:39.622Z,12.20
2022-08-26T13:59:07.880Z,10.65
2022-08-26T14:01:37.911Z,11.70
2022-08-26T14:04:05.829Z,10.15
2022-08-26T14:06:36.657Z,10.20
2022-08-26T14:09:06.272Z,13.10
2022-08-26T14:11:50.618Z,10.88
2022-08-26T14:14:26.874Z,13.18
2022-08-26T14:16:59.226Z,11.43
2022-08-26T14:19:29.612Z,8.10
2022-08-26T14:22:01.749Z,6.25
2022-08-26T14:24:29.938Z,9.38
2022-08-26T14:26:58.518Z,8.80
2022-08-26T14:29:27.835Z,8.43
2022-08-26T14:31:58.690Z,11.00
2022-08-26T14:34:29.675Z,12.40
2022-08-26T14:36:57.715Z,13.35
2022-08-26T14:39:37.377Z,9.27
2022-08-26T14:42:05.703Z,6.47
2022-08-26T14:44:35.464Z,14.35
2022-08-26T14:47:07.875Z,11.10
2022-08-26T14:49:37.771Z,12.00
2022-08-26T14:52:08.535Z,9.23
2022-08-26T14:54:36.892Z,8.33
2022-08-26T14:57:09.642Z,9.82
2022-08-26T14:59:41.655Z,11.17
2022-08-26T15:02:13.982Z,5.75
2022-08-26T15:04:58.742Z,12.10
2022-08-26T15:07:29.205Z,11.50
2022-08-26T15:09:59.213Z,11.57
2022-08-26T15:12:27.892Z,11.73
2022-08-26T15:14:57.192Z,7.72
2022-08-26T15:17:25.275Z,12.60
2022-08-26T15:19:53.464Z,11.15
2022-08-26T15:22:21.614Z,12.85
2022-08-26T15:24:51.828Z,6.93
2022-08-26T15:27:22.277Z,4.70
2022-08-26T15:29:50.616Z,4.85
2022-08-26T15:32:20.839Z,6.00
2022-08-26T15:34:49.971Z,6.30
2022-08-26T15:37:20.605Z,8.32
2022-08-26T15:39:49.137Z,4.50
2022-08-26T15:42:17.211Z,7.47
2022-08-26T15:44:45.696Z,7.28
2022-08-26T15:47:14.058Z,7.60
2022-08-26T15:49:43.502Z,12.70
2022-08-26T15:52:11.888Z,10.47
2022-08-26T15:54:39.935Z,9.43
2022-08-26T15:57:11.460Z,15.05
2022-08-26T15:59:43.178Z,11.00
2022-08-26T16:02:11.384Z,10.88
2022-08-26T16:04:39.674Z,7.17
2022-08-26T16:07:09.201Z,8.27
2022-08-26T16:09:37.469Z,6.70
2022-08-26T16:12:05.938Z,8.75
2022-08-26T16:14:34.515Z,7.32
2022-08-26T16:17:02.499Z,8.23
2022-08-26T16:19:30.571Z,8.27
2022-08-26T16:21:58.532Z,6.95
2022-08-26T16:24:30.550Z,9.30
2022-08-26T16:26:59.081Z,8.73
2022-08-26T16:29:27.365Z,6.18
2022-08-26T16:31:57.595Z,6.45
2022-08-26T16:34:25.617Z,8.10
2022-08-26T16:36:53.666Z,7.57
2022-08-26T16:39:21.699Z,7.05
2022-08-26T16:41:51.544Z,7.82
2022-08-26T16:44:19.573Z,7.10
2022-08-26T16:46:48.036Z,6.80
2022-08-26T16:49:19.583Z,6.70
2022-08-26T16:51:50.593Z,7.30
2022-08-26T16:54:18.862Z,7.72
2022-08-26T16:56:46.830Z,7.80
2022-08-26T16:59:16.161Z,9.77
2022-08-26T17:01:44.206Z,7.75
2022-08-26T17:04:12.456Z,8.23
2022-08-26T17:06:41.256Z,6.80
2022-08-26T17:09:09.779Z,5.88
2022-08-26T17:11:37.962Z,4.32
2022-08-26T17:14:08.332Z,5.63
2022-08-26T17:16:38.778Z,3.70
2022-08-26T17:19:09.155Z,4.20
2022-08-26T17:21:38.170Z,1.60
2022-08-26T17:24:07.259Z,1.40
2022-08-26T17:26:37.936Z,1.45
2022-08-26T17:29:07.289Z,3.88
2022-08-26T17:31:35.365Z,2.50
2022-08-26T17:34:11.151Z,2.40
2022-08-26T17:36:40.848Z,1.88
2022-08-26T17:39:11.596Z,2.87
2022-08-26T17:41:39.569Z,3.38
2022-08-26T17:44:08.082Z,2.30
2022-08-26T17:46:38.429Z,2.30
2022-08-26T17:49:08.369Z,6.25
2022-08-26T17:51:36.369Z,4.00
2022-08-26T17:54:04.688Z,5.75
2022-08-26T17:56:32.571Z,7.05
2022-08-26T17:59:02.350Z,5.93
2022-08-26T18:01:34.789Z,6.90
2022-08-26T18:04:04.622Z,6.10
2022-08-26T18:06:35.686Z,6.47
2022-08-26T18:09:04.424Z,8.00
2022-08-26T18:11:32.819Z,6.88
2022-08-26T18:14:01.865Z,8.30
2022-08-26T18:16:32.319Z,7.93
2022-08-26T18:19:02.200Z,7.10
2022-08-26T18:21:30.378Z,7.25
2022-08-26T18:24:00.194Z,8.30
2022-08-26T18:26:31.111Z,6.30
2022-08-26T18:28:59.946Z,6.03
2022-08-26T18:31:28.044Z,6.10
2022-08-26T18:33:56.479Z,8.02
2022-08-26T18:36:26.170Z,8.20
2022-08-26T18:38:57.326Z,5.65
2022-08-26T18:41:28.800Z,6.40
2022-08-26T18:43:57.173Z,5.03
2022-08-26T18:46:27.938Z,5.70
2022-08-26T18:48:57.088Z,6.65
2022-08-26T18:51:27.863Z,7.60
2022-08-26T18:53:55.759Z,8.40
2022-08-26T18:56:29.073Z,5.82
2022-08-26T18:58:59.881Z,7.78
2022-08-26T19:01:29.716Z,4.83
2022-08-26T19:03:58.293Z,7.72
2022-08-26T19:06:27.036Z,7.07
2022-08-26T19:08:55.788Z,6.30
2022-08-26T19:11:31.610Z,6.47
2022-08-26T19:14:06.414Z,5.60
2022-08-26T19:16:34.681Z,9.13
2022-08-26T19:19:02.831Z,6.30
2022-08-26T19:21:34.524Z,6.60
2022-08-26T19:24:09.275Z,5.50
2022-08-26T19:26:38.884Z,4.88
2022-08-26T19:29:08.278Z,5.70
2022-08-26T19:31:36.461Z,5.13
2022-08-26T19:34:05.322Z,6.05
2022-08-26T19:36:34.229Z,5.07
2022-08-26T19:39:05.431Z,4.50
2022-08-26T19:41:38.004Z,5.15
2022-08-26T19:44:10.142Z,7.05
2022-08-26T19:49:11.812Z,9.85
2022-08-26T19:51:39.882Z,6.70
2022-08-26T19:54:07.822Z,8.00
2022-08-26T19:56:36.554Z,7.13
2022-08-26T19:59:04.598Z,6.87
2022-08-26T20:01:33.855Z,6.82
2022-08-26T20:04:04.849Z,7.83
2022-08-26T20:06:32.810Z,7.63
2022-08-26T20:09:00.679Z,4.88
2022-08-26T20:11:29.379Z,6.57
2022-08-26T20:13:59.692Z,5.30
2022-08-26T20:16:27.688Z,7.37
2022-08-26T20:19:14.338Z,5.60
2022-08-26T20:21:42.947Z,6.90
2022-08-26T20:24:13.865Z,5.90
2022-08-26T20:26:44.063Z,6.93
2022-08-26T20:29:13.892Z,8.90
2022-08-26T20:31:43.991Z,5.25
2022-08-26T20:34:18.939Z,6.10
2022-08-26T20:36:48.475Z,6.40
2022-08-26T20:39:17.595Z,5.17
2022-08-26T20:41:45.678Z,8.02
2022-08-26T20:44:16.682Z,5.47
2022-08-26T20:46:44.847Z,7.30
2022-08-26T20:49:13.233Z,6.55
2022-08-26T20:51:43.812Z,7.50
2022-08-26T20:54:13.076Z,5.22
2022-08-26T20:56:41.422Z,8.75
2022-08-26T20:59:09.665Z,10.30
2022-08-26T21:01:42.447Z,10.27
2022-08-26T21:04:13.010Z,9.10
2022-08-26T21:06:52.112Z,6.47
2022-08-26T21:09:20.667Z,4.82
2022-08-26T21:11:49.907Z,6.90
2022-08-26T21:14:19.013Z,7.43
2022-08-26T21:16:47.789Z,7.70
2022-08-26T21:19:18.571Z,8.35
2022-08-26T21:21:49.333Z,6.15
2022-08-26T21:24:17.575Z,5.05
2022-08-26T21:26:45.593Z,4.70
2022-08-26T21:29:14.174Z,7.00
2022-08-26T21:31:46.372Z,5.55
2022-08-26T21:34:15.310Z,6.03
2022-08-26T21:36:43.294Z,7.23
2022-08-26T21:39:12.895Z,6.18
2022-08-26T21:41:42.223Z,5.97
2022-08-26T21:44:14.225Z,7.00
2022-08-26T21:46:46.722Z,8.05
2022-08-26T21:49:16.704Z,7.40
2022-08-26T21:51:46.753Z,8.25
2022-08-26T21:54:17.416Z,7.85
2022-08-26T21:56:47.149Z,6.45
2022-08-26T21:59:17.543Z,8.10
2022-08-26T22:01:48.104Z,9.48
2022-08-26T22:04:18.801Z,9.52
2022-08-26T22:06:48.757Z,9.70
2022-08-26T22:09:19.848Z,8.27
2022-08-26T22:11:48.477Z,7.47
2022-08-26T22:14:21.971Z,5.13
2022-08-26T22:16:51.056Z,8.50
2022-08-26T22:19:20.011Z,7.88
2022-08-26T22:21:50.337Z,7.07
2022-08-26T22:24:24.686Z,8.52
2022-08-26T22:26:52.999Z,7.00
2022-08-26T22:29:21.015Z,7.75
2022-08-26T22:31:51.410Z,6.00
2022-08-26T22:34:21.065Z,8.10
2022-08-26T22:36:50.377Z,7.03
2022-08-26T22:39:25.341Z,7.13
2022-08-26T22:41:54.125Z,6.10
2022-08-26T22:44:23.154Z,7.60
2022-08-26T22:46:54.240Z,11.60
2022-08-26T22:49:22.559Z,10.63
2022-08-26T22:51:51.179Z,7.50
2022-08-26T22:54:20.352Z,9.35
2022-08-26T22:56:48.622Z,8.70
2022-08-26T22:59:16.775Z,10.05
2022-08-26T23:01:46.393Z,6.80
2022-08-26T23:04:14.547Z,7.60
2022-08-26T23:06:47.541Z,7.93
2022-08-26T23:09:20.078Z,8.77
2022-08-26T23:11:49.895Z,9.83
2022-08-26T23:14:20.193Z,7.75
2022-08-26T23:16:48.497Z,11.20
2022-08-26T23:19:18.607Z,14.63
2022-08-26T23:21:46.790Z,13.10
2022-08-26T23:24:15.080Z,12.48
2022-08-26T23:26:45.506Z,9.40
2022-08-26T23:29:15.531Z,12.07
2022-08-26T23:31:46.013Z,9.73
2022-08-26T23:34:36.084Z,13.27
2022-08-26T23:37:06.213Z,16.00
2022-08-26T23:39:38.135Z,17.30
2022-08-26T23:42:10.826Z,19.73
2022-08-26T23:44:38.835Z,17.60
2022-08-26T23:47:07.409Z,20.23
2022-08-26T23:49:36.606Z,21.73
2022-08-26T23:52:23.386Z,21.23
2022-08-26T23:54:52.360Z,16.10
2022-08-26T23:57:23.959Z,22.05
2022-08-26T23:59:52.396Z,15.75
